createdAt,value
2018-08-27T00:00:37.226Z,96.30
2018-08-27T00:03:04.835Z,96.30
2018-08-27T00:05:32.430Z,96.20
2018-08-27T00:08:00.038Z,96.20
2018-08-27T00:10:27.651Z,96.20
2018-08-27T00:12:55.280Z,96.10
2018-08-27T00:15:22.828Z,96.20
2018-08-27T00:17:50.430Z,96.10
2018-08-27T00:20:18.016Z,96.10
2018-08-27T00:22:46.109Z,96.70
2018-08-27T00:25:13.695Z,96.70
2018-08-27T00:27:41.259Z,96.80
2018-08-27T00:30:08.825Z,97.10
2018-08-27T00:32:36.387Z,97.20
2018-08-27T00:35:03.959Z,97.30
2018-08-27T00:37:31.543Z,97.30
2018-08-27T00:39:59.143Z,96.80
2018-08-27T00:42:27.065Z,96.70
2018-08-27T00:44:54.637Z,97.10
2018-08-27T00:47:22.385Z,97.20
2018-08-27T00:49:50.013Z,97.20
2018-08-27T00:52:17.581Z,97.20
2018-08-27T00:54:45.137Z,97.00
2018-08-27T00:57:12.712Z,97.00
2018-08-27T00:59:40.294Z,97.30
2018-08-27T01:02:07.853Z,97.30
2018-08-27T01:04:35.433Z,97.40
2018-08-27T01:07:03.027Z,97.30
2018-08-27T01:09:30.555Z,97.30
2018-08-27T01:11:58.156Z,97.40
2018-08-27T01:14:25.715Z,97.40
2018-08-27T01:16:53.315Z,97.40
2018-08-27T01:19:20.891Z,97.30
2018-08-27T01:21:48.481Z,97.20
2018-08-27T01:24:16.096Z,97.10
2018-08-27T01:26:44.051Z,97.00
2018-08-27T01:29:11.774Z,97.00
2018-08-27T01:31:39.314Z,97.10
2018-08-27T01:34:06.934Z,97.00
2018-08-27T01:36:34.525Z,96.80
2018-08-27T01:39:02.180Z,96.90
2018-08-27T01:41:29.746Z,97.00
2018-08-27T01:43:57.382Z,97.10
2018-08-27T01:46:24.921Z,97.10
2018-08-27T01:48:52.469Z,97.30
2018-08-27T01:51:20.069Z,97.40
2018-08-27T01:53:47.616Z,97.30
2018-08-27T01:56:15.154Z,97.40
2018-08-27T01:58:48.449Z,97.20
2018-08-27T02:01:16.054Z,97.20
2018-08-27T02:03:43.684Z,97.20
2018-08-27T02:06:11.258Z,97.30
2018-08-27T02:08:38.804Z,97.20
2018-08-27T02:11:06.444Z,97.20
2018-08-27T02:13:34.052Z,97.20
2018-08-27T02:16:01.666Z,97.20
2018-08-27T02:18:29.237Z,97.20
2018-08-27T02:20:56.818Z,97.10
2018-08-27T02:23:24.372Z,97.10
2018-08-27T02:25:51.946Z,97.20
2018-08-27T02:28:19.540Z,97.10
2018-08-27T02:30:47.129Z,97.10
2018-08-27T02:33:14.688Z,97.60
2018-08-27T02:35:42.296Z,97.60
2018-08-27T02:38:09.845Z,97.70
2018-08-27T02:40:37.449Z,97.60
2018-08-27T02:43:05.037Z,97.60
2018-08-27T02:45:32.608Z,97.50
2018-08-27T02:48:00.649Z,97.50
2018-08-27T02:50:28.237Z,97.60
2018-08-27T02:52:55.804Z,97.50
2018-08-27T02:55:23.508Z,97.40
2018-08-27T02:57:51.098Z,97.40
2018-08-27T03:00:18.950Z,97.40
2018-08-27T03:02:46.534Z,97.40
2018-08-27T03:05:14.586Z,97.40
2018-08-27T03:07:42.152Z,97.30
2018-08-27T03:10:09.698Z,97.30
2018-08-27T03:12:37.309Z,97.20
2018-08-27T03:15:05.104Z,97.20
2018-08-27T03:17:32.649Z,97.20
2018-08-27T03:20:00.217Z,97.30
2018-08-27T03:22:27.785Z,97.20
2018-08-27T03:24:55.407Z,97.10
2018-08-27T03:27:23.033Z,97.00
2018-08-27T03:29:50.649Z,97.10
2018-08-27T03:32:18.224Z,97.10
2018-08-27T03:34:45.853Z,96.90
2018-08-27T03:37:13.419Z,96.80
2018-08-27T03:39:41.005Z,97.20
2018-08-27T03:42:09.099Z,97.00
2018-08-27T03:44:36.660Z,97.10
2018-08-27T03:47:04.315Z,97.10
2018-08-27T03:49:31.891Z,97.10
2018-08-27T03:51:59.438Z,97.10
2018-08-27T03:54:27.172Z,97.20
2018-08-27T03:56:54.736Z,96.90
2018-08-27T03:59:22.280Z,96.90
2018-08-27T04:01:49.865Z,97.10
2018-08-27T04:04:17.414Z,97.20
2018-08-27T04:06:45.051Z,97.20
2018-08-27T04:09:12.632Z,97.30
2018-08-27T04:11:40.186Z,97.30
2018-08-27T04:14:07.744Z,97.30
2018-08-27T04:16:35.305Z,97.60
2018-08-27T04:19:02.900Z,97.50
2018-08-27T04:21:30.472Z,97.30
2018-08-27T04:23:58.066Z,97.40
2018-08-27T04:26:25.637Z,97.50
2018-08-27T04:28:53.306Z,97.70
2018-08-27T04:31:20.788Z,97.90
2018-08-27T04:33:48.403Z,97.90
2018-08-27T04:36:15.992Z,97.80
2018-08-27T04:38:43.580Z,97.60
2018-08-27T04:41:11.176Z,97.40
2018-08-27T04:43:38.764Z,97.40
2018-08-27T04:46:06.397Z,97.50
2018-08-27T04:48:34.166Z,97.60
2018-08-27T04:51:01.750Z,97.60
2018-08-27T04:53:29.334Z,97.60
2018-08-27T04:55:56.884Z,97.80
2018-08-27T04:58:26.335Z,97.90
2018-08-27T05:00:53.923Z,98.30
2018-08-27T05:03:21.546Z,98.00
2018-08-27T05:05:49.088Z,98.00
2018-08-27T05:08:16.670Z,97.90
2018-08-27T05:10:44.190Z,97.80
2018-08-27T05:13:11.840Z,97.60
2018-08-27T05:15:39.346Z,97.60
2018-08-27T05:18:06.984Z,97.80
2018-08-27T05:20:34.565Z,97.80
2018-08-27T05:23:02.166Z,97.70
2018-08-27T05:25:29.844Z,97.60
2018-08-27T05:27:57.471Z,97.60
2018-08-27T05:30:25.088Z,97.50
2018-08-27T05:32:52.648Z,97.50
2018-08-27T05:35:20.267Z,97.20
2018-08-27T05:37:47.902Z,97.30
2018-08-27T05:40:15.873Z,97.60
2018-08-27T05:42:43.827Z,97.80
2018-08-27T05:45:11.499Z,98.00
2018-08-27T05:47:39.229Z,97.80
2018-08-27T05:50:06.913Z,97.70
2018-08-27T05:52:34.555Z,97.70
2018-08-27T05:55:02.239Z,97.40
2018-08-27T05:57:29.923Z,97.40
2018-08-27T05:59:57.603Z,96.80
2018-08-27T06:02:25.591Z,97.00
2018-08-27T06:04:53.205Z,96.90
2018-08-27T06:07:20.853Z,96.80
2018-08-27T06:09:48.497Z,96.50
2018-08-27T06:12:16.126Z,96.20
2018-08-27T06:14:43.873Z,96.10
2018-08-27T06:17:11.661Z,96.10
2018-08-27T06:19:39.260Z,96.10
2018-08-27T06:22:07.080Z,96.00
2018-08-27T06:24:34.597Z,95.90
2018-08-27T06:27:02.276Z,95.80
2018-08-27T06:29:30.019Z,95.70
2018-08-27T06:31:57.722Z,95.50
2018-08-27T06:34:25.401Z,95.60
2018-08-27T06:36:53.048Z,95.50
2018-08-27T06:39:20.690Z,95.30
2018-08-27T06:41:48.281Z,94.90
2018-08-27T06:44:15.889Z,94.70
2018-08-27T06:46:43.532Z,94.60
2018-08-27T06:49:11.172Z,94.60
2018-08-27T06:51:38.924Z,94.40
2018-08-27T06:54:06.574Z,94.60
2018-08-27T06:56:34.396Z,94.80
2018-08-27T06:59:01.966Z,94.50
2018-08-27T07:01:29.618Z,94.40
2018-08-27T07:03:57.356Z,94.30
2018-08-27T07:06:25.057Z,94.10
2018-08-27T07:08:52.786Z,94.20
2018-08-27T07:11:20.502Z,94.20
2018-08-27T07:13:48.256Z,93.90
2018-08-27T07:16:15.904Z,93.80
2018-08-27T07:18:43.615Z,93.70
2018-08-27T07:21:11.447Z,93.60
2018-08-27T07:23:39.128Z,93.60
2018-08-27T07:26:06.848Z,93.00
2018-08-27T07:28:34.498Z,92.50
2018-08-27T07:31:02.181Z,92.30
2018-08-27T07:33:29.856Z,92.40
2018-08-27T07:35:57.516Z,92.40
2018-08-27T07:38:25.160Z,92.30
2018-08-27T07:40:52.846Z,91.80
2018-08-27T07:43:20.526Z,91.20
2018-08-27T07:45:48.103Z,90.80
2018-08-27T07:48:15.782Z,90.80
2018-08-27T07:50:43.421Z,90.50
2018-08-27T07:53:11.086Z,90.50
2018-08-27T07:55:38.742Z,90.30
2018-08-27T07:58:06.384Z,90.00
2018-08-27T08:00:34.108Z,89.70
2018-08-27T08:03:01.773Z,88.60
2018-08-27T08:05:29.454Z,88.50
2018-08-27T08:07:57.266Z,87.20
2018-08-27T08:10:24.951Z,86.60
2018-08-27T08:12:52.619Z,86.30
2018-08-27T08:15:20.805Z,85.50
2018-08-27T08:17:48.890Z,84.70
2018-08-27T08:20:16.693Z,83.60
2018-08-27T08:22:44.449Z,83.80
2018-08-27T08:25:12.151Z,83.90
2018-08-27T08:27:39.749Z,83.90
2018-08-27T08:30:07.475Z,82.50
2018-08-27T08:32:35.095Z,80.80
2018-08-27T08:35:02.841Z,79.90
2018-08-27T08:37:30.497Z,80.30
2018-08-27T08:39:58.209Z,80.60
2018-08-27T08:42:25.856Z,80.30
2018-08-27T08:44:53.523Z,79.90
2018-08-27T08:47:21.173Z,78.00
2018-08-27T08:49:48.847Z,77.10
2018-08-27T08:52:16.462Z,75.80
2018-08-27T08:54:44.262Z,74.20
2018-08-27T08:57:12.091Z,73.80
2018-08-27T08:59:39.710Z,74.00
2018-08-27T09:02:07.341Z,72.90
2018-08-27T09:04:35.001Z,70.20
2018-08-27T09:07:02.698Z,70.20
2018-08-27T09:09:30.281Z,71.20
2018-08-27T09:11:57.849Z,72.20
2018-08-27T09:14:25.521Z,72.10
2018-08-27T09:16:53.177Z,73.60
2018-08-27T09:19:20.712Z,72.80
2018-08-27T09:21:48.264Z,71.90
2018-08-27T09:24:15.836Z,72.40
2018-08-27T09:26:43.632Z,72.00
2018-08-27T09:29:11.206Z,71.60
2018-08-27T09:31:38.833Z,71.40
2018-08-27T09:34:06.472Z,71.00
2018-08-27T09:36:34.085Z,69.50
2018-08-27T09:39:01.691Z,70.30
2018-08-27T09:41:29.322Z,69.40
2018-08-27T09:43:56.904Z,66.70
2018-08-27T09:46:24.518Z,65.60
2018-08-27T09:48:52.084Z,65.00
2018-08-27T09:51:19.682Z,66.30
2018-08-27T09:53:47.364Z,65.80
2018-08-27T09:56:14.998Z,63.70
2018-08-27T09:58:42.618Z,63.80
2018-08-27T10:01:15.751Z,63.00
2018-08-27T10:03:43.386Z,63.20
2018-08-27T10:06:10.935Z,62.70
2018-08-27T10:08:38.533Z,62.30
2018-08-27T10:11:06.159Z,63.30
2018-08-27T10:13:33.758Z,61.30
2018-08-27T10:16:01.405Z,59.90
2018-08-27T10:18:29.018Z,59.60
2018-08-27T10:20:57.577Z,57.70
2018-08-27T10:23:25.312Z,55.50
2018-08-27T10:25:52.945Z,53.30
2018-08-27T10:28:20.641Z,51.60
2018-08-27T10:30:48.245Z,51.00
2018-08-27T10:33:15.833Z,51.70
2018-08-27T10:35:43.660Z,50.50
2018-08-27T10:38:11.293Z,49.70
2018-08-27T10:40:38.881Z,49.40
2018-08-27T10:43:06.529Z,47.60
2018-08-27T10:45:34.150Z,46.40
2018-08-27T10:48:01.703Z,44.70
2018-08-27T10:50:29.394Z,44.00
2018-08-27T10:52:56.997Z,44.40
2018-08-27T10:55:24.671Z,44.10
2018-08-27T10:57:52.335Z,43.70
2018-08-27T11:00:19.985Z,43.50
2018-08-27T11:02:47.625Z,43.20
2018-08-27T11:05:15.743Z,43.00
2018-08-27T11:07:47.862Z,41.90
2018-08-27T11:10:23.173Z,42.80
2018-08-27T11:12:50.813Z,42.40
2018-08-27T11:15:18.951Z,42.40
2018-08-27T11:17:46.859Z,41.70
2018-08-27T11:20:14.645Z,42.30
2018-08-27T11:22:42.254Z,41.90
2018-08-27T11:25:09.893Z,40.80
2018-08-27T11:27:37.726Z,42.00
2018-08-27T11:30:06.421Z,41.60
2018-08-27T11:32:34.018Z,40.30
2018-08-27T11:35:01.665Z,40.60
2018-08-27T11:37:29.357Z,39.80
2018-08-27T11:39:57.064Z,39.40
2018-08-27T11:42:24.723Z,39.00
2018-08-27T11:44:52.451Z,38.70
2018-08-27T11:47:20.251Z,39.00
2018-08-27T11:49:47.896Z,38.60
2018-08-27T11:52:15.567Z,39.10
2018-08-27T11:54:43.368Z,38.80
2018-08-27T11:57:11.065Z,38.10
2018-08-27T11:59:38.767Z,36.20
2018-08-27T12:02:06.495Z,36.20
2018-08-27T12:04:34.280Z,36.10
2018-08-27T12:07:01.952Z,35.50
2018-08-27T12:09:29.658Z,36.50
2018-08-27T12:11:57.342Z,35.90
2018-08-27T12:14:25.712Z,35.20
2018-08-27T12:16:53.788Z,34.80
2018-08-27T12:19:21.478Z,36.20
2018-08-27T12:21:49.448Z,35.20
2018-08-27T12:24:17.200Z,34.40
2018-08-27T12:26:44.848Z,35.20
2018-08-27T12:29:12.555Z,34.70
2018-08-27T12:31:40.228Z,33.80
2018-08-27T12:34:07.934Z,33.60
2018-08-27T12:36:35.674Z,32.30
2018-08-27T12:39:04.864Z,33.50
2018-08-27T12:41:32.578Z,34.50
2018-08-27T12:44:00.234Z,33.60
2018-08-27T12:46:27.853Z,33.50
2018-08-27T12:48:55.555Z,32.80
2018-08-27T12:51:23.932Z,32.70
2018-08-27T12:53:51.573Z,33.50
2018-08-27T12:56:19.274Z,33.20
2018-08-27T12:58:46.945Z,33.90
2018-08-27T13:01:14.581Z,32.90
2018-08-27T13:03:42.303Z,32.60
2018-08-27T13:06:10.016Z,33.10
2018-08-27T13:08:37.701Z,33.50
2018-08-27T13:11:05.341Z,32.40
2018-08-27T13:13:33.019Z,31.70
2018-08-27T13:16:00.675Z,31.60
2018-08-27T13:18:28.351Z,32.20
2018-08-27T13:20:55.967Z,31.70
2018-08-27T13:23:23.637Z,31.50
2018-08-27T13:25:51.397Z,32.30
2018-08-27T13:28:19.007Z,32.10
2018-08-27T13:30:46.676Z,30.50
2018-08-27T13:33:14.315Z,30.30
2018-08-27T13:35:42.083Z,30.70
2018-08-27T13:38:09.676Z,30.10
2018-08-27T13:40:37.494Z,30.00
2018-08-27T13:43:05.015Z,30.50
2018-08-27T13:45:33.350Z,30.30
2018-08-27T13:48:01.527Z,30.20
2018-08-27T13:50:29.284Z,29.90
2018-08-27T13:52:57.002Z,30.20
2018-08-27T13:55:24.676Z,29.70
2018-08-27T13:57:52.304Z,29.60
2018-08-27T14:00:21.636Z,29.50
2018-08-27T14:02:49.620Z,29.80
2018-08-27T14:05:17.332Z,30.00
2018-08-27T14:07:45.036Z,30.10
2018-08-27T14:10:13.029Z,29.60
2018-08-27T14:12:41.189Z,30.20
2018-08-27T14:15:08.923Z,30.90
2018-08-27T14:17:36.639Z,30.40
2018-08-27T14:20:04.563Z,30.30
2018-08-27T14:22:35.257Z,30.90
2018-08-27T14:25:06.362Z,30.40
2018-08-27T14:27:34.001Z,30.00
2018-08-27T14:30:01.666Z,30.30
2018-08-27T14:32:29.530Z,30.00
2018-08-27T14:34:57.308Z,30.00
2018-08-27T14:37:24.988Z,30.50
2018-08-27T14:39:52.501Z,29.00
2018-08-27T14:42:20.177Z,28.80
2018-08-27T14:44:47.622Z,29.50
2018-08-27T14:47:15.164Z,30.00
2018-08-27T14:49:42.736Z,30.80
2018-08-27T14:52:10.315Z,32.00
2018-08-27T14:54:37.889Z,31.80
2018-08-27T14:57:08.909Z,32.00
2018-08-27T14:59:36.721Z,31.20
2018-08-27T15:02:04.463Z,31.00
2018-08-27T15:04:32.171Z,30.90
2018-08-27T15:06:59.723Z,31.20
2018-08-27T15:09:28.876Z,30.60
2018-08-27T15:11:56.686Z,30.50
2018-08-27T15:14:24.298Z,30.80
2018-08-27T15:16:51.927Z,30.80
2018-08-27T15:19:19.530Z,30.00
2018-08-27T15:21:47.120Z,29.30
2018-08-27T15:24:14.656Z,29.40
2018-08-27T15:26:42.237Z,29.60
2018-08-27T15:29:09.834Z,29.20
2018-08-27T15:31:37.382Z,29.20
2018-08-27T15:34:05.434Z,29.10
2018-08-27T15:36:33.000Z,29.20
2018-08-27T15:39:00.610Z,29.80
2018-08-27T15:41:28.233Z,29.80
2018-08-27T15:43:55.833Z,30.30
2018-08-27T15:46:29.071Z,31.50
2018-08-27T15:48:56.739Z,33.00
2018-08-27T15:51:24.442Z,34.20
2018-08-27T15:53:52.519Z,35.50
2018-08-27T15:56:20.644Z,36.50
2018-08-27T15:58:48.137Z,37.30
2018-08-27T16:01:15.757Z,37.80
2018-08-27T16:03:44.187Z,37.60
2018-08-27T16:06:12.434Z,37.50
2018-08-27T16:08:40.422Z,37.80
2018-08-27T16:11:08.035Z,38.10
2018-08-27T16:13:36.077Z,38.30
2018-08-27T16:16:03.670Z,38.70
2018-08-27T16:18:31.269Z,38.90
2018-08-27T16:20:58.867Z,39.30
2018-08-27T16:23:26.554Z,39.50
2018-08-27T16:25:54.110Z,39.10
2018-08-27T16:28:21.633Z,39.30
2018-08-27T16:30:49.182Z,39.60
2018-08-27T16:33:16.814Z,39.70
2018-08-27T16:35:44.390Z,40.20
2018-08-27T16:38:11.949Z,40.90
2018-08-27T16:40:39.602Z,41.10
2018-08-27T16:43:07.220Z,41.50
2018-08-27T16:45:34.928Z,41.60
2018-08-27T16:48:02.515Z,41.80
2018-08-27T16:50:30.077Z,41.90
2018-08-27T16:52:57.687Z,42.00
2018-08-27T16:55:25.344Z,42.10
2018-08-27T16:57:52.903Z,41.80
2018-08-27T17:00:20.489Z,41.80
2018-08-27T17:02:48.099Z,42.60
2018-08-27T17:05:15.617Z,45.10
2018-08-27T17:07:43.227Z,46.60
2018-08-27T17:10:10.782Z,47.10
2018-08-27T17:12:38.376Z,47.50
2018-08-27T17:15:06.532Z,47.20
2018-08-27T17:17:34.154Z,47.10
2018-08-27T17:20:01.696Z,47.80
2018-08-27T17:22:29.312Z,48.30
2018-08-27T17:24:56.842Z,48.50
2018-08-27T17:27:24.447Z,49.20
2018-08-27T17:29:52.041Z,49.20
2018-08-27T17:32:19.645Z,51.10
2018-08-27T17:34:47.236Z,50.00
2018-08-27T17:37:14.874Z,50.50
2018-08-27T17:39:42.422Z,52.00
2018-08-27T17:42:10.018Z,53.00
2018-08-27T17:44:37.578Z,53.70
2018-08-27T17:47:05.263Z,55.10
2018-08-27T17:49:32.827Z,56.40
2018-08-27T17:52:01.531Z,56.40
2018-08-27T17:54:29.114Z,56.70
2018-08-27T17:56:56.751Z,57.40
2018-08-27T17:59:24.339Z,57.80
2018-08-27T18:01:51.983Z,58.70
2018-08-27T18:04:19.652Z,59.80
2018-08-27T18:06:47.267Z,59.70
2018-08-27T18:09:14.960Z,59.50
2018-08-27T18:11:42.665Z,59.80
2018-08-27T18:14:10.311Z,60.50
2018-08-27T18:16:37.996Z,61.60
2018-08-27T18:19:05.648Z,60.20
2018-08-27T18:21:33.303Z,59.20
2018-08-27T18:24:01.018Z,61.10
2018-08-27T18:26:28.892Z,61.80
2018-08-27T18:28:56.496Z,60.80
2018-08-27T18:31:24.127Z,60.30
2018-08-27T18:33:51.886Z,60.20
2018-08-27T18:36:20.504Z,59.80
2018-08-27T18:38:48.197Z,59.90
2018-08-27T18:41:15.863Z,60.60
2018-08-27T18:43:43.678Z,60.30
2018-08-27T18:46:11.307Z,59.90
2018-08-27T18:48:38.995Z,59.50
2018-08-27T18:51:06.689Z,59.90
2018-08-27T18:53:34.396Z,60.40
2018-08-27T18:56:03.926Z,60.80
2018-08-27T18:58:31.590Z,61.30
2018-08-27T19:00:59.327Z,64.40
2018-08-27T19:03:26.967Z,65.10
2018-08-27T19:05:55.779Z,65.10
2018-08-27T19:08:23.471Z,64.60
2018-08-27T19:10:51.256Z,64.90
2018-08-27T19:13:19.150Z,65.60
2018-08-27T19:15:46.860Z,65.80
2018-08-27T19:18:14.517Z,66.00
2018-08-27T19:20:42.297Z,65.00
2018-08-27T19:23:10.009Z,64.60
2018-08-27T19:25:37.824Z,64.60
2018-08-27T19:28:05.702Z,64.00
2018-08-27T19:30:33.471Z,63.20
2018-08-27T19:33:01.141Z,61.50
2018-08-27T19:35:28.853Z,59.90
2018-08-27T19:37:57.542Z,60.10
2018-08-27T19:40:25.493Z,60.80
2018-08-27T19:42:53.751Z,60.50
2018-08-27T19:45:21.701Z,60.40
2018-08-27T19:47:49.778Z,60.70
2018-08-27T19:50:17.459Z,61.60
2018-08-27T19:52:45.167Z,62.50
2018-08-27T19:55:12.938Z,62.50
2018-08-27T19:57:41.311Z,63.30
2018-08-27T20:00:09.053Z,63.70
2018-08-27T20:02:36.860Z,65.50
2018-08-27T20:05:04.556Z,66.40
2018-08-27T20:07:32.268Z,67.70
2018-08-27T20:09:59.959Z,69.00
2018-08-27T20:12:27.634Z,69.50
2018-08-27T20:14:55.263Z,70.20
2018-08-27T20:17:22.933Z,69.30
2018-08-27T20:19:50.540Z,68.60
2018-08-27T20:22:18.263Z,67.80
2018-08-27T20:24:45.971Z,67.30
2018-08-27T20:27:13.633Z,66.60
2018-08-27T20:29:41.255Z,66.20
2018-08-27T20:32:08.880Z,66.50
2018-08-27T20:34:36.464Z,66.20
2018-08-27T20:37:04.270Z,66.10
2018-08-27T20:39:31.911Z,66.30
2018-08-27T20:41:59.554Z,67.20
2018-08-27T20:44:27.166Z,67.90
2018-08-27T20:46:54.834Z,67.90
2018-08-27T20:49:22.478Z,67.90
2018-08-27T20:51:50.061Z,67.50
2018-08-27T20:54:17.683Z,67.40
2018-08-27T20:56:45.297Z,67.60
2018-08-27T20:59:12.918Z,67.80
2018-08-27T21:01:40.527Z,68.00
2018-08-27T21:04:08.391Z,68.30
2018-08-27T21:06:36.015Z,68.40
2018-08-27T21:09:03.748Z,68.80
2018-08-27T21:11:31.351Z,69.00
2018-08-27T21:14:10.022Z,69.30
2018-08-27T21:16:38.001Z,69.80
2018-08-27T21:19:05.629Z,70.10
2018-08-27T21:21:33.205Z,70.50
2018-08-27T21:24:00.867Z,70.80
2018-08-27T21:26:28.423Z,71.20
2018-08-27T21:28:56.033Z,71.20
2018-08-27T21:31:23.633Z,71.10
2018-08-27T21:33:51.196Z,71.00
2018-08-27T21:36:18.749Z,70.80
2018-08-27T21:38:46.282Z,70.90
2018-08-27T21:41:13.881Z,71.00
2018-08-27T21:43:41.475Z,71.20
2018-08-27T21:46:09.056Z,71.40
2018-08-27T21:48:36.598Z,71.60
2018-08-27T21:51:04.327Z,72.40
2018-08-27T21:53:31.894Z,72.10
2018-08-27T21:55:59.453Z,72.50
2018-08-27T21:58:27.024Z,72.70
2018-08-27T22:00:54.656Z,73.00
2018-08-27T22:03:27.678Z,73.30
2018-08-27T22:05:56.187Z,73.50
2018-08-27T22:08:24.364Z,73.60
2018-08-27T22:10:51.929Z,73.70
2018-08-27T22:13:19.478Z,74.10
2018-08-27T22:15:47.060Z,74.40
2018-08-27T22:18:14.612Z,74.60
2018-08-27T22:20:42.204Z,74.70
2018-08-27T22:23:10.587Z,74.90
2018-08-27T22:25:38.294Z,74.90
2018-08-27T22:28:05.948Z,75.00
2018-08-27T22:30:33.658Z,74.90
2018-08-27T22:33:01.211Z,75.00
2018-08-27T22:35:28.765Z,75.20
2018-08-27T22:37:56.344Z,75.20
2018-08-27T22:40:23.888Z,75.50
2018-08-27T22:42:51.487Z,75.70
2018-08-27T22:45:19.028Z,75.90
2018-08-27T22:47:46.633Z,76.00
2018-08-27T22:50:14.245Z,76.10
2018-08-27T22:52:41.862Z,76.40
2018-08-27T22:55:09.399Z,76.70
2018-08-27T22:57:36.975Z,76.90
2018-08-27T23:00:04.633Z,77.00
2018-08-27T23:02:37.878Z,77.10
2018-08-27T23:05:06.283Z,77.60
2018-08-27T23:07:33.896Z,78.00
2018-08-27T23:10:01.433Z,78.40
2018-08-27T23:12:28.959Z,78.60
2018-08-27T23:14:56.565Z,78.90
2018-08-27T23:17:24.095Z,79.20
2018-08-27T23:19:51.667Z,79.60
2018-08-27T23:22:19.181Z,80.00
2018-08-27T23:24:46.783Z,80.40
2018-08-27T23:27:14.335Z,80.90
2018-08-27T23:29:41.865Z,81.50
2018-08-27T23:32:09.420Z,81.90
2018-08-27T23:34:36.968Z,82.10
2018-08-27T23:37:04.695Z,82.40
2018-08-27T23:39:32.247Z,82.50
2018-08-27T23:41:59.790Z,82.80
2018-08-27T23:44:27.326Z,83.20
2018-08-27T23:46:54.875Z,83.60
2018-08-27T23:49:22.447Z,84.20
2018-08-27T23:51:49.980Z,85.10
2018-08-27T23:54:17.523Z,85.40
2018-08-27T23:56:45.088Z,85.40
2018-08-27T23:59:12.644Z,85.40
